METAR Data
IDs: Format: Raw Decoded Include TAF

Data at: 0941 UTC 21 Oct 2019

LTAF 210920Z VRB03KT 9999 FEW040 27/17 Q1015 NOSIG RMK RWY23 09004KT 040V150